Data for 01/27/2006

Time Sea-Level Adjusted Pressure Absolute Pressure Temperature Relative Humidity Dew Point   
(mb) (inHg) (mb) (inHg) (C) (F) (%) (C) (F)
00:05 1012 29.88 841 24.83 0.2 32.3 58 -7.2 19.1
00:10 1012 29.88 841 24.83 0.2 32.4 57 -7.3 18.9
00:15 1012 29.88 841 24.83 0.3 32.5 57 -7.2 19.1
00:20 1012 29.88 841 24.83 0.3 32.5 57 -7.3 18.8
00:25 1012 29.88 841 24.83 0.4 32.6 58 -7.1 19.3
00:30 1012 29.88 841 24.83 0.3 32.5 58 -7.1 19.2
00:35 1012 29.88 841 24.83 0.1 32.2 58 -7.1 19.3
00:40 1012 29.88 841 24.83 -0.2 31.6 60 -7.1 19.2
00:45 1012 29.88 841 24.83 -0.6 30.9 60 -7.4 18.6
00:50 1012 29.88 841 24.83 -0.3 31.4 59 -7.4 18.7
00:55 1012 29.88 841 24.83 -0.2 31.6 60 -7 19.4
01:00 1012 29.88 841 24.83 -0.6 31 62 -6.9 19.5
01:05 1012 29.88 841 24.83 -0.5 31.2 62 -6.9 19.6
01:10 1012 29.88 841 24.83 -0.5 31.1 62 -6.9 19.7
01:15 1012 29.88 841 24.83 -0.6 31 63 -6.8 19.7
01:20 1012 29.88 841 24.83 -0.6 31 62 -6.9 19.6
01:25 1012 29.88 841 24.83 -0.6 30.9 62 -6.9 19.5
01:30 1012 29.88 841 24.83 -0.5 31 60 -7.3 18.9
01:35 1011 29.85 841 24.83 -0.4 31.4 60 -7.2 19.1
01:40 1011 29.85 841 24.83 -0.3 31.4 61 -7 19.3
01:45 1012 29.88 841 24.83 -0.5 31 61 -7 19.3
01:50 1012 29.88 841 24.83 -0.5 31 62 -6.9 19.6
01:55 1012 29.88 841 24.83 -0.7 30.7 64 -6.8 19.8
02:00 1012 29.88 841 24.83 -0.9 30.3 64 -6.9 19.6
02:05 1012 29.88 841 24.83 -0.9 30.3 64 -6.8 19.7
02:10 1012 29.88 841 24.83 -1.1 30 66 -6.8 19.8
02:15 1011 29.85 841 24.83 -1.2 29.9 66 -6.8 19.7
02:20 1012 29.88 841 24.83 -1.2 29.9 66 -6.7 20
02:25 1012 29.88 841 24.83 -1.6 29.2 68 -6.7 19.9
02:30 1012 29.88 841 24.83 -1.5 29.3 68 -6.7 20
02:35 1012 29.88 841 24.83 -1.4 29.6 67 -6.7 20
02:40 1012 29.88 841 24.83 -1.3 29.7 66 -6.8 19.8
02:45 1012 29.88 841 24.83 -1.1 30 65 -6.8 19.7
02:50 1012 29.88 841 24.83 -0.7 30.7 64 -6.7 19.9
02:55 1012 29.88 841 24.83 -0.9 30.3 66 -6.4 20.4
03:00 1012 29.88 841 24.83 -1.1 30.1 63 -7.3 18.8
03:05 1012 29.88 841 24.83 -0.4 31.3 60 -7.3 18.9
03:10 1012 29.88 841 24.83 -0.1 31.9 59 -7.2 19
03:15 1012 29.88 841 24.83 -0.3 31.4 63 -6.6 20.1
03:20 1012 29.88 841 24.83 -1.8 28.7 68 -7 19.5
03:25 1012 29.88 841 24.83 -2.8 26.9 71 -7.5 18.6
03:30 1012 29.88 841 24.83 -2.9 26.7 70 -7.7 18.2
03:35 1012 29.88 841 24.83 -2.8 26.9 69 -7.8 18
03:40 1012 29.88 841 24.83 -2.9 26.7 71 -7.6 18.4
03:45 1012 29.88 841 24.83 -3.1 26.5 69 -7.9 17.7
03:50 1012 29.88 841 24.83 -2.9 26.8 69 -7.9 17.8
03:55 1012 29.88 841 24.83 -2.6 27.2 68 -7.8 18
04:00 1012 29.88 841 24.83 -2.5 27.5 67 -7.9 17.8
04:05 1012 29.88 841 24.83 -2.4 27.7 65 -8.1 17.4
04:10 1012 29.88 841 24.83 -2 28.3 62 -8.3 17
04:15 1012 29.88 841 24.83 -1.7 28.9 62 -8.1 17.4
04:20 1012 29.88 841 24.83 -1.6 29.1 62 -8.1 17.5
04:25 1012 29.88 841 24.83 -1.7 28.9 63 -8 17.7
04:30 1012 29.88 841 24.83 -1.8 28.8 63 -7.9 17.8
04:35 1012 29.88 841 24.83 -1.9 28.5 64 -7.8 18
04:40 1012 29.88 841 24.83 -2.1 28.2 65 -7.8 17.9
04:45 1012 29.88 841 24.83 -2.2 28.1 64 -8 17.5
04:50 1012 29.88 841 24.83 -1.9 28.6 64 -7.8 18
04:55 1012 29.88 841 24.83 -1.6 29.1 64 -7.7 18.2
05:00 1012 29.88 841 24.83 -1.5 29.2 63 -7.7 18.1
05:05 1012 29.88 841 24.83 -1.6 29.1 63 -7.8 18
05:10 1012 29.88 841 24.83 -1.9 28.5 64 -7.8 18
05:15 1012 29.88 841 24.83 -1.9 28.6 64 -7.9 17.7
05:20 1012 29.88 841 24.83 -1.6 29.2 63 -7.8 18
05:25 1012 29.88 841 24.83 -1.3 29.6 62 -7.8 18
05:30 1012 29.88 841 24.83 -1.1 30 61 -7.7 18.1
05:35 1012 29.88 841 24.83 -0.9 30.4 60 -7.6 18.3
05:40 1012 29.88 841 24.83 -0.9 30.3 62 -7.4 18.7
05:45 1012 29.88 841 24.83 -1 30.2 62 -7.4 18.7
05:50 1012 29.88 841 24.83 -1.2 29.9 62 -7.5 18.5
05:55 1012 29.88 841 24.83 -1.1 30 62 -7.5 18.5
06:00 1012 29.88 841 24.83 -1 30.1 63 -7.2 19
06:05 1012 29.88 841 24.83 -1.7 29 66 -7.2 19
06:10 1012 29.88 841 24.83 -1.9 28.5 66 -7.5 18.5
06:15 1012 29.88 841 24.83 -1.8 28.7 65 -7.6 18.3
06:20 1012 29.88 841 24.83 -1.7 29 65 -7.5 18.5
06:25 1012 29.88 841 24.83 -1.5 29.3 63 -7.6 18.3
06:30 1012 29.88 841 24.83 -1.3 29.7 63 -7.4 18.6
06:35 1012 29.88 841 24.83 -1.2 29.8 64 -7.3 18.9
06:40 1012 29.88 841 24.83 -1.2 29.9 64 -7.2 19.1
06:45 1012 29.88 841 24.83 -1.2 29.8 65 -7 19.3
06:50 1012 29.88 841 24.83 -1.1 30 64 -7 19.4
06:55 1012 29.88 841 24.83 -1.2 29.9 64 -7.1 19.3
07:00 1012 29.88 841 24.83 -1.1 30.1 65 -6.9 19.6
07:05 1012 29.88 841 24.83 -1.1 29.9 66 -6.8 19.8
07:10 1012 29.88 841 24.83 -1.3 29.6 66 -6.9 19.6
07:15 1012 29.88 841 24.83 -1.4 29.5 66 -7 19.4
07:20 1012 29.88 841 24.83 -1.4 29.6 66 -6.9 19.5
07:25 1012 29.88 841 24.83 -1.6 29.2 66 -7.1 19.3
07:30 1012 29.88 841 24.83 -1.5 29.3 65 -7.1 19.2
07:35 1012 29.88 841 24.83 -1.4 29.5 65 -7.2 19.1
07:40 1012 29.88 841 24.83 -1.3 29.7 64 -7.2 19
07:45 1012 29.88 841 24.83 -1.5 29.2 66 -7 19.4
07:50 1012 29.88 841 24.83 -1.6 29.2 65 -7.2 19
07:55 1012 29.88 841 24.83 -1.5 29.3 65 -7.3 18.9
08:00 1012 29.88 842 24.86 -1.4 29.5 64 -7.3 18.8
08:05 1012 29.88 842 24.86 -1.4 29.5 65 -7.1 19.2
08:10 1012 29.88 842 24.86 -1.3 29.7 65 -7.1 19.3
08:15 1012 29.88 842 24.86 -1.2 29.8 64 -7.1 19.2
08:20 1012 29.88 842 24.86 -1 30.1 64 -7.1 19.2
08:25 1012 29.88 842 24.86 -0.9 30.3 64 -7 19.4
08:30 1012 29.88 842 24.86 -1.1 30 65 -6.9 19.6
08:35 1012 29.88 842 24.86 -1.3 29.7 66 -6.8 19.7
08:40 1012 29.88 842 24.86 -1.5 29.3 66 -7.1 19.3
08:45 1013 29.91 842 24.86 -1.7 28.9 66 -7.2 19.1
08:50 1013 29.91 842 24.86 -1.8 28.8 67 -7.1 19.3
08:55 1013 29.91 842 24.86 -1.5 29.4 65 -7.1 19.1
09:00 1013 29.91 842 24.86 -1 30.2 65 -6.8 19.7
09:05 1013 29.91 842 24.86 -0.8 30.5 63 -7 19.4
09:10 1013 29.91 842 24.86 -0.7 30.7 64 -6.7 20
09:15 1013 29.91 842 24.86 -1.1 30.1 65 -6.8 19.7
09:20 1013 29.91 842 24.86 -1 30.1 64 -7.1 19.2
09:25 1013 29.91 842 24.86 -1.1 30 64 -7.2 19.1
09:30 1013 29.91 842 24.86 -0.9 30.4 63 -7 19.4
09:35 1013 29.91 842 24.86 -0.6 30.9 61 -7.3 18.9
09:40 1013 29.91 842 24.86 -0.8 30.6 63 -6.9 19.5
09:45 1013 29.91 842 24.86 -0.7 30.8 62 -7 19.4
09:50 1013 29.91 842 24.86 -0.2 31.7 61 -6.8 19.8
09:55 1013 29.91 842 24.86 0.1 32.1 60 -6.8 19.8
10:00 1013 29.91 842 24.86 0.2 32.3 59 -7 19.4
10:05 1013 29.91 842 24.86 0.3 32.5 59 -6.7 19.9
10:10 1013 29.91 842 24.86 0.5 32.9 58 -6.9 19.6
10:15 1013 29.91 842 24.86 0.6 33.2 57 -6.9 19.7
10:20 1013 29.91 842 24.86 0.8 33.4 57 -6.9 19.6
10:25 1013 29.91 842 24.86 0.8 33.4 56 -7 19.4
10:30 1013 29.91 842 24.86 0.5 32.9 58 -6.7 19.9
10:35 1013 29.91 842 24.86 0.2 32.4 59 -6.8 19.7
10:40 1013 29.91 842 24.86 0.4 32.7 59 -6.7 19.9
10:45 1013 29.91 842 24.86 0.2 32.4 60 -6.6 20.1
10:50 1013 29.91 842 24.86 0.2 32.3 60 -6.6 20.1
10:55 1013 29.91 842 24.86 0.3 32.5 60 -6.7 20
11:00 1013 29.91 842 24.86 0.3 32.6 60 -6.6 20.2
11:05 1013 29.91 842 24.86 0.1 32.2 62 -6.4 20.4
11:10 1013 29.91 842 24.86 0.2 32.3 60 -6.7 19.9
11:15 1013 29.91 842 24.86 0.3 32.6 60 -6.5 20.3
11:20 1013 29.91 842 24.86 0.6 33.1 60 -6.3 20.6
11:25 1013 29.91 842 24.86 1.1 34 57 -6.4 20.5
11:30 1013 29.91 842 24.86 1.1 34.1 58 -6.2 20.9
11:35 1013 29.91 842 24.86 1.2 34.1 57 -6.5 20.3
11:40 1013 29.91 842 24.86 1.6 34.8 56 -6.3 20.6
11:45 1013 29.91 842 24.86 1.4 34.6 57 -6.1 21
11:50 1013 29.91 842 24.86 1.1 34.1 57 -6.3 20.6
11:55 1013 29.91 842 24.86 1.1 34 57 -6.5 20.4
12:00 1013 29.91 842 24.86 1 33.8 58 -6.3 20.6
12:05 1013 29.91 842 24.86 1.5 34.7 56 -6.4 20.5
12:10 1013 29.91 842 24.86 1.7 35 56 -6.3 20.7
12:15 1013 29.91 842 24.86 1.8 35.3 55 -6.4 20.5
12:20 1013 29.91 842 24.86 2 35.7 53 -6.5 20.3
12:25 1013 29.91 842 24.86 2.4 36.4 51 -6.7 20
12:30 1013 29.91 842 24.86 2.6 36.7 51 -6.4 20.4
12:35 1013 29.91 842 24.86 2.7 36.8 51 -6.5 20.3
12:40 1013 29.91 842 24.86 2.5 36.5 53 -6.1 21
12:45 1013 29.91 842 24.86 2.4 36.3 54 -6 21.2
12:50 1012 29.88 842 24.86 2.3 36.1 57 -5.4 22.3
12:55 1012 29.88 842 24.86 2.1 35.9 56 -5.8 21.6
13:00 1012 29.88 842 24.86 2.6 36.8 49 -7 19.5
13:05 1012 29.88 842 24.86 2.3 36.2 51 -6.8 19.7
13:10 1012 29.88 841 24.83 2.7 36.8 48 -7.2 19.1
13:15 1012 29.88 841 24.83 2.7 36.8 49 -7.1 19.3
13:20 1012 29.88 841 24.83 2.8 37 47 -7.5 18.6
13:25 1012 29.88 841 24.83 3 37.5 46 -7.5 18.4
13:30 1012 29.88 841 24.83 3 37.5 46 -7.5 18.6
13:35 1012 29.88 841 24.83 2.9 37.3 47 -7.4 18.7
13:40 1012 29.88 841 24.83 3.3 37.9 45 -7.7 18.2
13:45 1012 29.88 841 24.83 3.8 38.9 43 -7.8 18
13:50 1012 29.88 841 24.83 4.1 39.4 41 -7.9 17.8
13:55 1012 29.88 841 24.83 3.7 38.6 42 -8.2 17.3
14:00 1012 29.88 841 24.83 3.4 38.2 41 -8.6 16.6
14:05 1012 29.88 841 24.83 3.5 38.3 44 -7.8 18
14:10 1012 29.88 841 24.83 3.5 38.4 42 -8.1 17.4
14:15 1012 29.88 841 24.83 3.7 38.6 42 -8.2 17.2
14:20 1012 29.88 841 24.83 3.5 38.3 42 -8.3 17.1
14:25 1012 29.88 841 24.83 3.2 37.7 44 -8 17.5
14:30 1012 29.88 841 24.83 3.1 37.5 43 -8.3 17.1
14:35 1012 29.88 841 24.83 3.1 37.5 42 -8.5 16.7
14:40 1012 29.88 841 24.83 3 37.4 42 -8.7 16.4
14:45 1012 29.88 841 24.83 2.9 37.2 43 -8.6 16.5
14:50 1012 29.88 841 24.83 3.1 37.6 41 -9 15.9
14:55 1012 29.88 841 24.83 3.2 37.7 43 -8.4 16.9
15:00 1012 29.88 841 24.83 3 37.4 43 -8.4 16.9
15:05 1012 29.88 841 24.83 2.8 37 44 -8.2 17.3
15:10 1012 29.88 841 24.83 2.2 35.9 47 -7.9 17.8
15:15 1012 29.88 841 24.83 1.9 35.4 47 -8.2 17.2
15:20 1012 29.88 841 24.83 2.1 35.8 47 -8.1 17.5
15:25 1012 29.88 841 24.83 1.9 35.4 49 -7.8 17.9
15:30 1012 29.88 841 24.83 2 35.5 46 -8.4 16.8
15:35 1012 29.88 841 24.83 1.7 35 48 -8.3 17.1
15:40 1012 29.88 841 24.83 2 35.5 46 -8.4 16.9
15:45 1012 29.88 842 24.86 2.2 36 46 -8.3 17.1
15:50 1012 29.88 842 24.86 2.3 36.1 46 -8.1 17.4
15:55 1012 29.88 842 24.86 2.2 36 46 -8.1 17.3
16:00 1012 29.88 842 24.86 2.4 36.3 46 -8.2 17.3
16:05 1012 29.88 842 24.86 2.3 36.1 46 -8.3 17.1
16:10 1013 29.91 842 24.86 2.2 35.9 45 -8.6 16.5
16:15 1013 29.91 842 24.86 2.1 35.9 46 -8.4 16.9
16:20 1013 29.91 842 24.86 2.2 35.9 46 -8.4 16.9
16:25 1013 29.91 842 24.86 1.9 35.5 47 -8.3 17
16:30 1013 29.91 842 24.86 1.9 35.4 47 -8.3 17.1
16:35 1013 29.91 842 24.86 1.9 35.4 47 -8.3 17
16:40 1013 29.91 842 24.86 1.7 35.1 47 -8.5 16.7
16:45 1013 29.91 842 24.86 1.6 35 47 -8.6 16.6
16:50 1013 29.91 842 24.86 1.5 34.7 49 -8.2 17.3
16:55 1013 29.91 842 24.86 1.4 34.4 50 -8 17.6
17:00 1013 29.91 842 24.86 1.3 34.4 50 -8.1 17.4
17:05 1013 29.91 842 24.86 1.3 34.3 49 -8.2 17.2
17:10 1013 29.91 842 24.86 1.3 34.4 50 -8.1 17.4
17:15 1013 29.91 842 24.86 1.3 34.3 48 -8.5 16.7
17:20 1013 29.91 842 24.86 1.3 34.3 47 -8.9 16
17:25 1013 29.91 842 24.86 1.3 34.3 46 -9 15.8
17:30 1013 29.91 842 24.86 1.3 34.3 46 -9 15.8
17:35 1013 29.91 842 24.86 1.3 34.4 46 -9 15.7
17:40 1013 29.91 843 24.89 1.4 34.6 45 -9.3 15.2
17:45 1013 29.91 843 24.89 1.3 34.3 49 -8.4 16.9
17:50 1013 29.91 843 24.89 1.2 34.1 48 -8.5 16.6
17:55 1014 29.94 843 24.89 1.2 34.2 49 -8.4 16.8
18:00 1014 29.94 843 24.89 1.2 34.1 52 -7.7 18.2
18:05 1014 29.94 843 24.89 0.9 33.6 54 -7.4 18.7
18:10 1014 29.94 843 24.89 0.8 33.5 55 -7.2 19
18:15 1014 29.94 843 24.89 0.7 33.2 57 -6.9 19.6
18:20 1014 29.94 843 24.89 0.4 32.7 58 -6.9 19.6
18:25 1014 29.94 843 24.89 0.4 32.7 58 -6.8 19.7
18:30 1014 29.94 843 24.89 0.4 32.7 59 -6.8 19.7
18:35 1014 29.94 843 24.89 0.5 32.9 59 -6.6 20.1
18:40 1014 29.94 843 24.89 0.3 32.5 60 -6.7 20
18:45 1014 29.94 843 24.89 0 32 61 -6.7 19.9
18:50 1014 29.94 843 24.89 -0.2 31.7 62 -6.7 20
18:55 1014 29.94 843 24.89 -0.5 31 63 -6.8 19.8
19:00 1014 29.94 843 24.89 -0.8 30.5 64 -6.9 19.6
19:05 1014 29.94 843 24.89 -0.9 30.4 65 -6.6 20.1
19:10 1014 29.94 843 24.89 -1.1 30.1 66 -6.7 20
19:15 1014 29.94 843 24.89 -1.2 29.9 66 -6.8 19.8
19:20 1014 29.94 843 24.89 -1.1 30 66 -6.7 19.9
19:25 1014 29.94 843 24.89 -1.1 30 67 -6.5 20.2
19:30 1014 29.94 843 24.89 -1.1 30 66 -6.7 20
19:35 1014 29.94 843 24.89 -1.4 29.5 67 -6.6 20.1
19:40 1014 29.94 843 24.89 -1.6 29.2 67 -6.9 19.6
19:45 1014 29.94 843 24.89 -1.5 29.3 66 -7 19.4
19:50 1014 29.94 843 24.89 -1.2 29.8 66 -6.8 19.7
19:55 1014 29.94 844 24.92 -1 30.2 66 -6.6 20.1
20:00 1014 29.94 844 24.92 -0.9 30.4 66 -6.5 20.2
20:05 1014 29.94 844 24.92 -0.8 30.5 62 -7.2 19
20:10 1014 29.94 844 24.92 -0.8 30.5 59 -7.8 18
20:15 1014 29.94 844 24.92 -0.8 30.6 59 -7.8 17.9
20:20 1014 29.94 844 24.92 -0.7 30.8 58 -8 17.6
20:25 1014 29.94 843 24.89 -0.7 30.8 59 -7.7 18.1
20:30 1014 29.94 843 24.89 -1 30.3 61 -7.5 18.5
20:35 1014 29.94 844 24.92 -1.6 29.1 65 -7.4 18.8
20:40 1014 29.94 844 24.92 -2.3 27.8 68 -7.4 18.7
20:45 1014 29.94 844 24.92 -2.4 27.6 66 -7.9 17.8
20:50 1015 29.97 844 24.92 -2.3 27.9 65 -8.1 17.5
20:55 1015 29.97 844 24.92 -2.4 27.6 65 -8.1 17.3
21:00 1015 29.97 844 24.92 -2.5 27.6 66 -8 17.6
21:05 1015 29.97 844 24.92 -2.3 27.8 64 -8.2 17.2
21:10 1015 29.97 844 24.92 -2.2 28 63 -8.3 17
21:15 1015 29.97 844 24.92 -1.9 28.6 60 -8.8 16.2
21:20 1014 29.94 844 24.92 -1.7 29 60 -8.5 16.8
21:25 1015 29.97 844 24.92 -1.4 29.5 58 -8.6 16.6
21:30 1015 29.97 844 24.92 -1.4 29.5 59 -8.5 16.7
21:35 1015 29.97 844 24.92 -1.5 29.4 60 -8.4 17
21:40 1015 29.97 844 24.92 -1.3 29.7 59 -8.3 17.1
21:45 1015 29.97 844 24.92 -1.1 30 61 -7.8 18
21:50 1015 29.97 844 24.92 -1.6 29.2 63 -7.6 18.3
21:55 1015 29.97 844 24.92 -2.1 28.3 65 -7.7 18.1
22:00 1015 29.97 844 24.92 -2.2 28 64 -8.1 17.4
22:05 1015 29.97 844 24.92 -2.1 28.1 64 -8.1 17.4
22:10 1015 29.97 844 24.92 -2.1 28.1 63 -8.2 17.2
22:15 1015 29.97 844 24.92 -2 28.3 63 -8.2 17.2
22:20 1015 29.97 844 24.92 -2 28.4 62 -8.3 17.1
22:25 1015 29.97 844 24.92 -1.9 28.7 59 -8.9 15.9
22:30 1015 29.97 844 24.92 -1.8 28.7 59 -8.9 16
22:35 1015 29.97 844 24.92 -1.8 28.8 59 -8.7 16.3
22:40 1015 29.97 844 24.92 -1.7 28.9 59 -8.7 16.3
22:45 1015 29.97 844 24.92 -1.7 28.9 59 -8.8 16.2
22:50 1015 29.97 844 24.92 -1.8 28.8 57 -9.2 15.4
22:55 1015 29.97 844 24.92 -1.9 28.7 57 -9.2 15.4
23:00 1015 29.97 844 24.92 -2.3 27.9 58 -9.4 15
23:05 1015 29.97 844 24.92 -2.3 27.8 59 -9.3 15.2
23:10 1015 29.97 844 24.92 -2.7 27.2 60 -9.3 15.2
23:15 1015 29.97 844 24.92 -2.5 27.4 59 -9.4 15.1
23:20 1015 29.97 844 24.92 -2.5 27.6 59 -9.3 15.2
23:25 1015 29.97 844 24.92 -2.3 27.8 58 -9.4 15.1
23:30 1015 29.97 844 24.92 -2.4 27.7 57 -9.7 14.5
23:35 1015 29.97 844 24.92 -2.9 26.8 57 -10.2 13.6
23:40 1015 29.97 844 24.92 -3.3 26.1 57 -10.7 12.8
23:45 1015 29.97 844 24.92 -3.5 25.7 57 -10.8 12.6
23:50 1015 29.97 844 24.92 -3.7 25.4 58 -10.7 12.7
23:55 1015 29.97 844 24.92 -3.7 25.3 58 -10.9 12.3
24:00 1015 29.97 844 24.92 -4 24.9 58 -11 12.2